Time;durP1;ratioP1;P1;durP2;ratioP2;P2;SDS_P1;SDS_P2;PMS_P1;PMS_P2;Temp;Humidity;BMP_temperature;BMP_pressure;BME280_temperature;BME280_humidity;BME280_pressure;Samples;Min_cycle;Max_cycle;Signal;HPM_P1;HPM_P2
2022/03/25 00:02:34;;;;;;;46.72;24.33;;;6.00;1.00;;;;;;6206477;23;20022;-87
2022/03/25 00:05:22;;;;;;;51.15;25.50;;;5.90;1.00;;;;;;6122865;23;20026;-87
2022/03/25 00:08:12;;;;;;;45.72;23.77;;;5.80;1.00;;;;;;6122114;23;20018;-87
2022/03/25 00:11:02;;;;;;;53.25;27.42;;;5.60;1.00;;;;;;6207408;23;20021;-87
2022/03/25 00:13:51;;;;;;;49.05;26.58;;;5.40;1.00;;;;;;6206944;23;20091;-86
2022/03/25 00:16:45;;;;;;;46.08;24.38;;;5.40;1.00;;;;;;6202740;23;20141;-87
2022/03/25 00:19:35;;;;;;;50.40;25.50;;;5.30;1.00;;;;;;6195429;23;20025;-87
2022/03/25 00:22:25;;;;;;;44.10;24.25;;;5.20;1.00;;;;;;6123319;23;20041;-85
2022/03/25 00:25:16;;;;;;;45.55;24.83;;;5.10;1.00;;;;;;6123719;23;20370;-86
2022/03/25 00:28:04;;;;;;;45.30;24.38;;;5.10;1.00;;;;;;6205702;23;20054;-87
2022/03/25 00:30:55;;;;;;;51.60;26.55;;;5.00;1.00;;;;;;6121664;23;20033;-86
2022/03/25 00:33:49;;;;;;;45.25;24.88;;;4.90;1.00;;;;;;6203851;23;20030;-86
2022/03/25 00:36:36;;;;;;;47.40;24.40;;;4.90;1.00;;;;;;6208053;23;20026;-86
2022/03/25 00:39:24;;;;;;;45.38;25.27;;;5.00;1.00;;;;;;6122984;23;20097;-87
2022/03/25 00:42:13;;;;;;;48.65;25.05;;;5.10;1.00;;;;;;6126570;23;20037;-86
2022/03/25 00:45:03;;;;;;;45.95;25.95;;;5.10;1.00;;;;;;6126317;23;20488;-86
2022/03/25 00:47:53;;;;;;;48.53;25.40;;;5.10;1.00;;;;;;6105233;23;20062;-87
2022/03/25 00:50:43;;;;;;;53.40;25.02;;;5.10;1.00;;;;;;6101452;23;20044;-86
2022/03/25 00:53:33;;;;;;;47.35;25.90;;;5.00;1.00;;;;;;6105714;23;20030;-86
2022/03/25 00:56:21;;;;;;;45.15;25.27;;;5.00;1.00;;;;;;6129247;23;20053;-85
2022/03/25 00:59:09;;;;;;;51.33;25.95;;;4.90;1.00;;;;;;6135570;23;20026;-87
2022/03/25 01:01:57;;;;;;;43.90;24.42;;;4.80;1.00;;;;;;6107103;23;20022;-87
2022/03/25 01:04:45;;;;;;;46.05;25.50;;;4.80;1.00;;;;;;6122699;23;20329;-87
2022/03/25 01:07:35;;;;;;;49.75;25.35;;;4.70;1.00;;;;;;6122758;23;20037;-86
2022/03/25 01:10:23;;;;;;;51.25;25.73;;;4.80;1.00;;;;;;6121835;23;20092;-87
2022/03/25 01:13:11;;;;;;;45.60;24.50;;;4.80;1.00;;;;;;6123258;23;20508;-86
2022/03/25 01:16:05;;;;;;;48.33;25.73;;;4.90;1.00;;;;;;6102264;23;20057;-87
2022/03/25 01:18:53;;;;;;;47.63;24.77;;;4.80;1.00;;;;;;6103118;23;20336;-86
2022/03/25 01:21:45;;;;;;;44.55;24.92;;;4.70;3.20;;;;;;6102157;23;20033;-87
2022/03/25 01:24:39;;;;;;;43.97;23.27;;;4.50;12.60;;;;;;6104364;23;20314;-86
2022/03/25 01:27:27;;;;;;;51.78;24.65;;;4.30;1.00;;;;;;6107182;23;20026;-87
2022/03/25 01:30:18;;;;;;;46.05;24.45;;;4.20;15.30;;;;;;6106356;23;20021;-85
2022/03/25 01:33:11;;;;;;;51.65;24.02;;;4.20;28.50;;;;;;6125618;23;20076;-87
2022/03/25 01:35:58;;;;;;;45.65;24.05;;;4.10;81.60;;;;;;6124934;23;20050;-86
2022/03/25 01:38:47;;;;;;;40.25;23.40;;;4.10;82.40;;;;;;6127594;23;20030;-87
2022/03/25 01:41:34;;;;;;;44.67;25.23;;;4.00;95.40;;;;;;6117335;23;20030;-87
2022/03/25 01:44:29;;;;;;;49.15;25.02;;;3.90;99.90;;;;;;6097242;23;20022;-85
2022/03/25 01:47:17;;;;;;;44.78;24.40;;;3.90;99.90;;;;;;6121542;23;20037;-86
2022/03/25 01:50:20;;;;;;;48.72;23.55;;;3.90;99.90;;;;;;6122986;23;20032;-86
2022/03/25 01:53:18;;;;;;;52.83;24.55;;;3.80;99.90;;;;;;6122697;23;20289;-85
2022/03/25 01:56:05;;;;;;;53.25;25.35;;;3.90;99.90;;;;;;6102312;23;20053;-87
2022/03/25 01:58:54;;;;;;;48.20;24.73;;;4.00;99.90;;;;;;6101682;23;20026;-86
2022/03/25 02:01:42;;;;;;;47.85;25.75;;;4.10;99.90;;;;;;6121558;23;20030;-86
2022/03/25 02:04:30;;;;;;;45.70;25.48;;;4.10;99.90;;;;;;6123213;23;20350;-86
2022/03/25 02:07:17;;;;;;;47.15;25.45;;;4.10;99.90;;;;;;6102570;23;20037;-86
2022/03/25 02:10:06;;;;;;;49.90;25.73;;;4.00;1.00;;;;;;6121859;23;20093;-87
2022/03/25 02:12:56;;;;;;;49.20;25.98;;;3.90;1.00;;;;;;6129624;23;20105;-86
2022/03/25 02:15:48;;;;;;;53.28;24.70;;;3.90;37.70;;;;;;6135260;23;20029;-85
2022/03/25 02:18:54;;;;;;;44.10;23.88;;;3.80;99.90;;;;;;6134817;23;20034;-87
2022/03/25 02:21:44;;;;;;;51.35;25.95;;;3.80;1.00;;;;;;6134720;23;20026;-83
2022/03/25 02:24:31;;;;;;;49.40;24.58;;;3.80;1.00;;;;;;6122880;22;20038;-83
2022/03/25 02:27:19;;;;;;;51.45;24.88;;;3.90;99.90;;;;;;6123866;22;20033;-87
2022/03/25 02:30:09;;;;;;;49.33;24.67;;;3.90;99.90;;;;;;6139645;23;20026;-86
2022/03/25 02:33:01;;;;;;;55.22;24.60;;;3.90;99.90;;;;;;6134560;23;20379;-87
2022/03/25 02:35:50;;;;;;;49.78;24.25;;;3.80;99.90;;;;;;6112263;23;20057;-87
2022/03/25 02:38:38;;;;;;;43.72;24.20;;;3.60;99.90;;;;;;6135072;23;20094;-86
2022/03/25 02:41:25;;;;;;;51.33;25.45;;;3.60;99.90;;;;;;6132699;23;20026;-84
2022/03/25 02:44:18;;;;;;;51.22;26.58;;;3.50;1.00;;;;;;6128214;23;20022;-85
2022/03/25 02:47:06;;;;;;;50.30;25.27;;;3.40;99.90;;;;;;6121400;23;20072;-86
2022/03/25 02:49:53;;;;;;;47.30;24.50;;;3.40;99.90;;;;;;6123313;23;20029;-87
2022/03/25 02:52:41;;;;;;;44.08;23.95;;;3.30;99.90;;;;;;6121820;23;20045;-86
2022/03/25 02:55:29;;;;;;;50.20;25.48;;;3.30;99.90;;;;;;6100643;23;20026;-84
2022/03/25 02:58:17;;;;;;;53.15;24.42;;;3.30;99.90;;;;;;6124907;23;20122;-86
2022/03/25 03:01:06;;;;;;;52.13;23.77;;;3.40;17.40;;;;;;6129583;23;20049;-86
2022/03/25 03:03:54;;;;;;;49.85;23.85;;;3.50;1.00;;;;;;6112368;23;20053;-86
2022/03/25 03:06:41;;;;;;;51.20;24.00;;;3.60;99.90;;;;;;6112129;23;20388;-84
2022/03/25 03:09:28;;;;;;;46.58;23.75;;;3.80;99.90;;;;;;6126826;23;20026;-86
2022/03/25 03:12:18;;;;;;;53.20;24.67;;;3.90;99.90;;;;;;6105499;23;20402;-85
2022/03/25 03:15:06;;;;;;;47.88;25.20;;;3.80;99.90;;;;;;6106218;23;20029;-85
2022/03/25 03:17:54;;;;;;;50.13;25.77;;;3.80;99.90;;;;;;6127676;23;20052;-86
2022/03/25 03:20:44;;;;;;;47.55;25.13;;;3.70;99.90;;;;;;6130316;23;20065;-85
2022/03/25 03:23:31;;;;;;;48.65;24.30;;;3.60;99.90;;;;;;6106005;23;20026;-86
2022/03/25 03:26:19;;;;;;;50.70;25.33;;;3.40;1.00;;;;;;6128264;23;20113;-86
2022/03/25 03:29:08;;;;;;;48.92;26.13;;;3.30;1.00;;;;;;6111748;23;20026;-86
2022/03/25 03:31:55;;;;;;;52.92;25.88;;;3.20;99.90;;;;;;6116160;23;20091;-87
2022/03/25 03:34:42;;;;;;;50.58;25.50;;;3.20;99.90;;;;;;6112628;23;20026;-87
2022/03/25 03:37:30;;;;;;;49.67;24.63;;;3.20;90.00;;;;;;6127530;23;20022;-86
2022/03/25 03:40:18;;;;;;;47.30;24.67;;;3.10;99.90;;;;;;6128153;23;20018;-86
2022/03/25 03:43:06;;;;;;;51.75;25.77;;;3.10;1.00;;;;;;6110227;23;20025;-86
2022/03/25 03:45:55;;;;;;;56.65;27.00;;;3.10;1.00;;;;;;6110758;23;20314;-84
2022/03/25 03:48:42;;;;;;;49.78;26.35;;;3.00;99.90;;;;;;6111818;23;20046;-86
2022/03/25 03:51:31;;;;;;;57.88;25.88;;;3.00;99.90;;;;;;6135581;23;20302;-85
2022/03/25 03:54:18;;;;;;;51.45;26.05;;;2.90;99.90;;;;;;6135051;23;20087;-86
2022/03/25 03:57:21;;;;;;;52.25;26.52;;;2.90;99.90;;;;;;6113958;23;20036;-86
2022/03/25 04:00:12;;;;;;;53.00;26.23;;;3.00;99.90;;;;;;6115500;23;20412;-86
2022/03/25 04:03:00;;;;;;;51.92;24.48;;;2.90;99.90;;;;;;6133235;23;20116;-86
2022/03/25 04:05:50;;;;;;;49.92;24.05;;;2.90;1.00;;;;;;6112689;23;20033;-85
2022/03/25 04:08:38;;;;;;;48.80;25.83;;;3.00;1.00;;;;;;6109662;23;20092;-86
2022/03/25 04:11:27;;;;;;;45.42;25.20;;;3.00;1.00;;;;;;6130380;23;20026;-85
2022/03/25 04:14:14;;;;;;;48.17;24.25;;;3.00;99.90;;;;;;6106997;23;20033;-86
2022/03/25 04:17:03;;;;;;;52.50;26.55;;;3.00;99.90;;;;;;6107294;23;20041;-86
2022/03/25 04:19:50;;;;;;;49.13;25.92;;;3.00;99.90;;;;;;6128263;23;20030;-86
2022/03/25 04:22:37;;;;;;;43.90;24.05;;;3.00;1.00;;;;;;6123109;23;20029;-86
2022/03/25 04:25:25;;;;;;;52.72;25.67;;;3.10;10.50;;;;;;6081807;23;20018;-86
2022/03/25 04:28:13;;;;;;;51.60;24.55;;;3.20;3.50;;;;;;6098324;23;20037;-86
2022/03/25 04:31:00;;;;;;;50.10;24.75;;;3.30;1.00;;;;;;6122482;23;20022;-86
2022/03/25 04:33:48;;;;;;;49.47;25.13;;;3.40;99.90;;;;;;6122793;23;20025;-85
2022/03/25 04:36:35;;;;;;;49.45;26.13;;;3.60;99.90;;;;;;6100992;23;20030;-85
2022/03/25 04:39:22;;;;;;;51.83;26.58;;;3.60;99.90;;;;;;6123217;23;20045;-86
2022/03/25 04:42:09;;;;;;;47.88;25.33;;;3.60;99.90;;;;;;6121177;23;20030;-86
2022/03/25 04:44:57;;;;;;;52.17;25.20;;;3.60;99.90;;;;;;6100167;23;20348;-86
2022/03/25 04:47:47;;;;;;;53.55;26.88;;;3.50;99.90;;;;;;6100290;23;20037;-86
2022/03/25 04:50:35;;;;;;;53.40;25.27;;;3.60;99.90;;;;;;6100593;23;20301;-87
2022/03/25 04:53:22;;;;;;;52.22;25.50;;;3.60;99.90;;;;;;6099631;23;20033;-84
2022/03/25 04:56:09;;;;;;;53.95;26.45;;;3.50;99.90;;;;;;6124451;23;20026;-87
2022/03/25 04:58:56;;;;;;;62.17;26.50;;;3.40;99.90;;;;;;6108887;23;20034;-83
2022/03/25 05:01:46;;;;;;;53.15;25.58;;;3.40;99.90;;;;;;6128241;23;20079;-86
2022/03/25 05:04:34;;;;;;;49.45;25.75;;;3.50;99.90;;;;;;6128507;23;20052;-85
2022/03/25 05:07:24;;;;;;;51.65;25.38;;;3.50;17.40;;;;;;6125719;23;20048;-85
2022/03/25 05:10:13;;;;;;;51.00;25.70;;;3.60;99.90;;;;;;6126602;23;20029;-85
2022/03/25 05:13:03;;;;;;;50.15;25.67;;;3.60;99.90;;;;;;6128881;23;20052;-87
2022/03/25 05:15:52;;;;;;;51.15;25.02;;;3.60;99.90;;;;;;6107577;23;20565;-86
2022/03/25 05:18:39;;;;;;;47.03;25.48;;;3.50;99.90;;;;;;6126024;23;20083;-85
2022/03/25 05:21:26;;;;;;;51.22;24.90;;;3.50;99.90;;;;;;6105188;23;20034;-85
2022/03/25 05:24:14;;;;;;;51.80;24.73;;;3.60;99.90;;;;;;6105583;23;20034;-84
2022/03/25 05:27:07;;;;;;;54.67;25.85;;;3.60;99.90;;;;;;6126510;23;20431;-86
2022/03/25 05:29:54;;;;;;;49.25;24.58;;;3.60;99.90;;;;;;6121300;23;20041;-85
2022/03/25 05:32:42;;;;;;;72.18;32.78;;;3.70;99.90;;;;;;6129676;23;20030;-86
2022/03/25 05:35:30;;;;;;;68.00;33.00;;;3.80;99.90;;;;;;6122552;23;20040;-86
2022/03/25 05:38:27;;;;;;;60.67;30.30;;;3.70;99.90;;;;;;6100923;23;20030;-85
2022/03/25 05:45:40;;;;;;;58.17;27.05;;;3.60;99.90;;;;;;6119428;23;20018;-86
2022/03/25 06:03:26;;;;;;;53.53;26.05;;;3.80;99.90;;;;;;6302906;22;20019;-84
2022/03/25 06:19:19;;;;;;;47.88;25.85;;;4.10;99.90;;;;;;6289182;22;20003;-87
2022/03/25 06:22:10;;;;;;;53.72;26.33;;;4.30;99.90;;;;;;6264962;22;20042;-86
2022/03/25 06:24:57;;;;;;;49.33;25.73;;;4.50;99.90;;;;;;6281212;22;20023;-84
2022/03/25 06:27:57;;;;;;;51.10;26.38;;;4.70;99.90;;;;;;6278429;22;20035;-84
2022/03/25 06:30:44;;;;;;;80.80;36.63;;;5.00;99.90;;;;;;6254296;22;20035;-87
2022/03/25 06:33:31;;;;;;;94.03;38.92;;;5.20;99.90;;;;;;6277770;22;20079;-85
2022/03/25 06:36:22;;;;;;;79.45;36.17;;;5.30;99.90;;;;;;6278415;22;20051;-85
2022/03/25 06:39:09;;;;;;;77.80;36.55;;;5.20;99.90;;;;;;6276292;22;20077;-86
2022/03/25 06:41:57;;;;;;;84.80;37.47;;;5.40;99.90;;;;;;6255890;22;20027;-85
2022/03/25 06:44:44;;;;;;;68.82;32.33;;;5.60;99.90;;;;;;6273265;22;20073;-86
2022/03/25 06:47:32;;;;;;;51.58;27.10;;;5.90;99.90;;;;;;6273020;22;20471;-85
2022/03/25 06:50:21;;;;;;;51.03;25.63;;;6.40;99.90;;;;;;6274996;22;20043;-83
2022/03/25 06:53:09;;;;;;;51.78;26.50;;;7.00;34.30;;;;;;6254305;22;20023;-83
2022/03/25 06:55:59;;;;;;;50.97;25.08;;;7.50;79.50;;;;;;6277393;22;20036;-85
2022/03/25 06:58:49;;;;;;;50.50;25.80;;;8.00;82.80;;;;;;6277342;22;20053;-84
2022/03/25 07:01:37;;;;;;;49.75;25.58;;;8.50;80.50;;;;;;6269314;22;20094;-83
2022/03/25 07:04:28;;;;;;;44.20;24.80;;;8.80;76.00;;;;;;6252357;22;20033;-83
2022/03/25 07:07:31;;;;;;;44.15;25.70;;;9.10;73.70;;;;;;6276975;22;20043;-86
2022/03/25 07:52:42;;;;;;;45.80;24.73;;;11.40;60.60;;;;;;5853302;24;20029;-83
2022/03/25 07:55:29;;;;;;;48.33;26.50;;;12.20;58.20;;;;;;5833144;24;20427;-82
2022/03/25 07:58:21;;;;;;;46.50;26.13;;;12.40;56.60;;;;;;5841343;24;20014;-82
2022/03/25 08:01:22;;;;;;;48.92;25.92;;;12.70;56.60;;;;;;6007175;23;20445;-82
2022/03/25 08:04:20;;;;;;;44.80;25.73;;;13.50;58.30;;;;;;6135642;23;20104;-84
2022/03/25 08:07:09;;;;;;;36.25;24.67;;;13.70;53.90;;;;;;6167094;23;20025;-83
2022/03/25 08:09:58;;;;;;;39.92;24.08;;;14.50;55.00;;;;;;6187089;23;20025;-84
2022/03/25 08:12:46;;;;;;;43.13;26.48;;;14.90;53.00;;;;;;6184557;23;20112;-84
2022/03/25 08:15:34;;;;;;;38.72;25.05;;;15.60;50.00;;;;;;6185144;23;20029;-85
2022/03/25 08:18:22;;;;;;;46.67;26.58;;;16.50;48.40;;;;;;6185084;23;20089;-84
2022/03/25 08:21:10;;;;;;;41.33;25.50;;;16.80;45.40;;;;;;6164434;23;20041;-85
2022/03/25 08:30:12;;;;;;;47.97;26.05;;;18.90;39.90;;;;;;6119351;23;20025;-83
2022/03/25 08:33:02;;;;;;;44.05;26.00;;;18.50;42.30;;;;;;6117841;23;20458;-81
2022/03/25 08:35:52;;;;;;;44.25;26.60;;;18.70;42.90;;;;;;6200181;23;20037;-83
2022/03/25 08:38:49;;;;;;;41.50;26.35;;;19.10;41.30;;;;;;6124536;23;20021;-80
2022/03/25 08:41:40;;;;;;;40.22;26.02;;;18.90;40.30;;;;;;6126442;23;20133;-82
2022/03/25 08:44:29;;;;;;;52.88;27.38;;;19.00;40.30;;;;;;6121407;23;20029;-82
2022/03/25 08:47:17;;;;;;;42.83;26.75;;;19.60;42.50;;;;;;6206744;23;20026;-83
2022/03/25 08:50:05;;;;;;;39.95;25.40;;;20.20;37.00;;;;;;6124276;23;20034;-85
2022/03/25 08:52:53;;;;;;;39.15;26.30;;;21.30;37.90;;;;;;6207772;23;20108;-84
2022/03/25 08:55:47;;;;;;;45.63;27.48;;;20.80;34.60;;;;;;6203315;23;20346;-81
2022/03/25 08:58:37;;;;;;;43.55;27.08;;;20.30;39.90;;;;;;6120573;23;20036;-84
2022/03/25 09:01:25;;;;;;;39.50;26.48;;;20.10;35.50;;;;;;6123126;23;20037;-82
2022/03/25 09:04:17;;;;;;;43.72;27.60;;;19.70;37.20;;;;;;6205652;23;20026;-82
2022/03/25 09:07:12;;;;;;;44.92;28.77;;;20.00;35.90;;;;;;6205070;23;20501;-82
2022/03/25 09:10:00;;;;;;;39.72;27.15;;;19.20;37.60;;;;;;6120209;23;20026;-80
2022/03/25 09:12:52;;;;;;;41.80;26.80;;;19.10;38.20;;;;;;6184846;23;20026;-84
2022/03/25 09:15:46;;;;;;;42.28;28.70;;;19.10;38.30;;;;;;6122193;23;20033;-83
2022/03/25 09:18:37;;;;;;;46.27;27.77;;;18.90;38.50;;;;;;6207229;23;20034;-84
2022/03/25 09:21:31;;;;;;;49.50;28.77;;;18.60;38.80;;;;;;6121085;23;20696;-83
2022/03/25 09:24:22;;;;;;;42.15;26.23;;;18.30;38.70;;;;;;6122835;23;20021;-83
2022/03/25 09:27:14;;;;;;;41.45;26.55;;;18.80;40.60;;;;;;6122588;23;20026;-81
2022/03/25 09:30:06;;;;;;;44.38;26.83;;;20.10;39.60;;;;;;6209106;23;20026;-81
2022/03/25 09:33:15;;;;;;;41.13;27.48;;;21.40;38.20;;;;;;6188802;22;20037;-82
2022/03/25 09:36:05;;;;;;;47.50;28.00;;;22.70;31.90;;;;;;6255590;22;20319;-81
2022/03/25 09:38:54;;;;;;;43.35;27.27;;;21.80;32.40;;;;;;6277980;22;20028;-83
2022/03/25 09:41:44;;;;;;;43.67;28.25;;;21.80;36.20;;;;;;6276784;22;20042;-81
2022/03/25 09:44:34;;;;;;;39.93;27.63;;;22.20;36.30;;;;;;6276967;22;20047;-80
2022/03/25 09:47:21;;;;;;;42.83;27.15;;;23.10;33.20;;;;;;6275738;22;20027;-82
2022/03/25 09:50:13;;;;;;;39.78;26.88;;;23.50;32.50;;;;;;6255745;22;20028;-85
2022/03/25 09:53:02;;;;;;;36.20;25.53;;;23.50;34.10;;;;;;6275282;22;20024;-82
2022/03/25 09:55:54;;;;;;;39.00;25.85;;;23.50;33.60;;;;;;6253470;22;20036;-83
2022/03/25 09:58:44;;;;;;;33.85;25.25;;;24.20;33.00;;;;;;6254439;22;20038;-82
2022/03/25 10:01:33;;;;;;;34.97;25.48;;;24.10;30.10;;;;;;6252036;22;20038;-81
2022/03/25 10:04:44;;;;;;;35.13;24.67;;;25.00;30.00;;;;;;6275170;22;20042;-85
2022/03/25 10:07:42;;;;;;;39.22;25.98;;;24.20;30.30;;;;;;6253693;22;20039;-83
2022/03/25 10:10:33;;;;;;;40.72;25.65;;;24.20;29.60;;;;;;6253519;22;20065;-82
2022/03/25 10:13:21;;;;;;;36.97;26.80;;;23.80;31.80;;;;;;6253299;22;20054;-83
2022/03/25 10:16:29;;;;;;;38.85;26.73;;;23.70;30.00;;;;;;6255236;22;20027;-84
2022/03/25 10:19:24;;;;;;;41.45;25.60;;;24.00;31.20;;;;;;6275055;22;20047;-82
2022/03/25 10:22:14;;;;;;;35.35;25.85;;;24.20;30.90;;;;;;6274959;22;20028;-83
2022/03/25 10:25:03;;;;;;;44.38;27.60;;;24.80;29.90;;;;;;6253899;22;20033;-83
2022/03/25 10:27:51;;;;;;;40.28;27.13;;;24.20;29.90;;;;;;6254673;22;20034;-84
2022/03/25 10:30:41;;;;;;;41.42;27.10;;;23.90;30.30;;;;;;6276624;22;20024;-83
2022/03/25 10:33:34;;;;;;;40.95;25.58;;;24.60;30.20;;;;;;6252618;22;20177;-82
2022/03/25 10:36:25;;;;;;;34.75;22.95;;;25.00;29.00;;;;;;6253630;22;20016;-83
2022/03/25 10:39:17;;;;;;;37.63;22.90;;;24.50;27.30;;;;;;6232552;22;20050;-82
2022/03/25 10:42:07;;;;;;;31.65;21.77;;;24.30;27.00;;;;;;6276537;22;20023;-83
2022/03/25 10:44:57;;;;;;;27.90;20.80;;;24.70;26.90;;;;;;6275446;22;20107;-82
2022/03/25 10:47:47;;;;;;;26.38;19.45;;;24.60;26.80;;;;;;6277595;22;20032;-81
2022/03/25 10:50:53;;;;;;;25.90;18.27;;;24.00;24.90;;;;;;6274837;22;20027;-84
2022/03/25 10:53:43;;;;;;;27.95;20.75;;;24.40;25.50;;;;;;6275651;22;20095;-83
2022/03/25 10:56:48;;;;;;;28.33;19.88;;;25.10;26.30;;;;;;6277355;22;20019;-82
2022/03/25 10:59:38;;;;;;;32.85;22.48;;;25.20;26.20;;;;;;6281240;22;20304;-83
2022/03/25 11:02:27;;;;;;;29.73;21.17;;;25.50;26.10;;;;;;6278677;22;20120;-82
2022/03/25 11:05:18;;;;;;;27.40;20.67;;;25.60;26.30;;;;;;6284595;22;20027;-82
2022/03/25 11:08:08;;;;;;;27.27;21.95;;;26.10;26.50;;;;;;6283708;22;20024;-85
2022/03/25 11:10:58;;;;;;;28.60;21.58;;;26.40;25.70;;;;;;6240065;22;20019;-81
2022/03/25 11:13:48;;;;;;;30.10;22.38;;;26.20;25.20;;;;;;6256702;22;20023;-81
2022/03/25 11:16:47;;;;;;;31.23;22.98;;;26.30;24.10;;;;;;6280038;22;20114;-83
2022/03/25 11:19:38;;;;;;;32.05;22.80;;;26.40;24.00;;;;;;6258610;22;20035;-83
2022/03/25 11:22:26;;;;;;;31.02;20.40;;;25.80;24.10;;;;;;6278505;22;20027;-83
2022/03/25 11:25:18;;;;;;;29.98;22.15;;;25.20;23.00;;;;;;6279210;22;20028;-82
2022/03/25 11:28:19;;;;;;;32.80;21.73;;;24.80;26.20;;;;;;6254384;22;20058;-84
2022/03/25 11:31:10;;;;;;;30.55;21.73;;;24.80;23.70;;;;;;6255984;22;20024;-82
2022/03/25 11:34:19;;;;;;;30.00;21.03;;;25.50;25.10;;;;;;6236998;22;20027;-83
2022/03/25 11:37:27;;;;;;;29.40;20.95;;;24.80;26.60;;;;;;6262093;22;20098;-85
2022/03/25 11:40:15;;;;;;;27.92;21.15;;;25.10;25.10;;;;;;6256814;22;20295;-82
2022/03/25 11:43:25;;;;;;;24.52;19.20;;;25.30;25.10;;;;;;6282072;22;20085;-83
2022/03/25 11:46:15;;;;;;;29.85;21.35;;;26.10;25.40;;;;;;6284026;22;20034;-82
2022/03/25 11:49:20;;;;;;;25.75;19.77;;;25.70;23.00;;;;;;6261544;22;20024;-83
2022/03/25 11:52:32;;;;;;;24.92;20.30;;;26.20;23.40;;;;;;6281942;22;20096;-83
2022/03/25 11:55:21;;;;;;;27.67;20.08;;;25.70;24.10;;;;;;6260847;22;20042;-85
2022/03/25 11:58:15;;;;;;;25.45;20.08;;;25.70;23.90;;;;;;6282553;22;20126;-86
2022/03/25 12:01:23;;;;;;;25.05;19.88;;;26.00;24.10;;;;;;6285276;22;20475;-86
2022/03/25 12:04:30;;;;;;;25.30;20.00;;;26.40;23.90;;;;;;6242550;22;20099;-87
2022/03/25 12:07:21;;;;;;;27.25;20.48;;;26.40;24.70;;;;;;6265022;22;20019;-88
2022/03/25 12:10:45;;;;;;;28.80;20.50;;;27.10;22.60;;;;;;6260472;22;20023;-91
2022/03/25 12:13:51;;;;;;;26.35;19.95;;;25.40;23.30;;;;;;6262365;22;20054;-88
2022/03/25 12:16:49;;;;;;;25.48;18.40;;;25.70;24.70;;;;;;6283692;22;20031;-87
2022/03/25 12:19:45;;;;;;;24.75;17.88;;;25.70;23.80;;;;;;6284163;22;20445;-82
2022/03/25 12:22:37;;;;;;;27.17;19.50;;;26.10;24.00;;;;;;6277502;22;20039;-83
2022/03/25 12:25:29;;;;;;;23.70;18.92;;;26.70;24.20;;;;;;6291628;22;20024;-82
2022/03/25 12:28:25;;;;;;;30.80;21.52;;;26.80;23.00;;;;;;6273552;22;20019;-82
2022/03/25 12:31:16;;;;;;;25.17;18.70;;;26.40;24.30;;;;;;6295903;22;20407;-81
2022/03/25 12:34:08;;;;;;;27.60;19.63;;;25.60;23.00;;;;;;6222715;23;20048;-82
2022/03/25 12:37:03;;;;;;;26.48;18.90;;;25.50;23.50;;;;;;6138130;23;20022;-82
2022/03/25 12:39:53;;;;;;;26.40;20.48;;;25.60;24.10;;;;;;6142619;22;20026;-80
2022/03/25 12:42:45;;;;;;;27.42;20.40;;;26.20;21.60;;;;;;6139612;23;20029;-82
2022/03/25 12:45:49;;;;;;;27.75;20.65;;;26.50;23.50;;;;;;6143003;22;20021;-84
2022/03/25 12:48:41;;;;;;;25.73;20.05;;;25.90;23.60;;;;;;6226783;22;20057;-83
2022/03/25 12:51:28;;;;;;;31.35;21.33;;;26.40;23.50;;;;;;6138009;23;20053;-80
2022/03/25 12:54:16;;;;;;;28.13;21.67;;;25.60;23.30;;;;;;6225225;23;20094;-83
2022/03/25 12:57:05;;;;;;;30.80;22.13;;;25.50;24.70;;;;;;6133755;23;20080;-83
2022/03/25 13:00:19;;;;;;;29.33;20.63;;;26.00;23.10;;;;;;6199527;23;20034;-84
2022/03/25 13:03:09;;;;;;;30.35;21.58;;;26.90;22.80;;;;;;6129415;23;20064;-83
2022/03/25 13:06:08;;;;;;;29.77;22.30;;;25.10;23.60;;;;;;6130232;23;20048;-81
2022/03/25 13:09:00;;;;;;;29.80;20.92;;;24.70;24.40;;;;;;6213253;23;20030;-81
2022/03/25 13:12:02;;;;;;;30.30;22.27;;;25.60;24.40;;;;;;6128944;23;20026;-81
2022/03/25 13:14:59;;;;;;;29.55;21.58;;;25.50;24.00;;;;;;6131172;23;20085;-84
2022/03/25 13:17:51;;;;;;;29.95;22.13;;;26.00;23.70;;;;;;6131543;23;20026;-82
2022/03/25 13:20:45;;;;;;;29.83;22.73;;;26.50;22.50;;;;;;6137135;23;20042;-82
2022/03/25 13:23:38;;;;;;;30.08;22.58;;;27.60;20.30;;;;;;6136842;23;20095;-82
2022/03/25 13:26:30;;;;;;;29.75;22.17;;;27.00;22.40;;;;;;6135208;23;20289;-82
2022/03/25 13:29:18;;;;;;;35.33;23.00;;;26.70;23.10;;;;;;6135693;23;20018;-80
2022/03/25 13:32:06;;;;;;;33.47;23.70;;;26.50;22.80;;;;;;6199201;23;20026;-80
2022/03/25 13:35:21;;;;;;;31.83;22.52;;;25.60;23.40;;;;;;6214455;23;20071;-81
2022/03/25 13:38:18;;;;;;;29.38;22.75;;;25.70;22.80;;;;;;6213852;23;20026;-82
2022/03/25 13:41:13;;;;;;;33.35;23.77;;;25.50;23.50;;;;;;6213468;23;20107;-82
2022/03/25 13:44:09;;;;;;;29.00;21.95;;;26.40;24.20;;;;;;6129365;23;20056;-81
2022/03/25 13:47:06;;;;;;;29.83;21.75;;;27.30;20.80;;;;;;6121960;23;20030;-82
2022/03/25 13:50:14;;;;;;;31.27;23.42;;;26.90;21.90;;;;;;6204366;23;20108;-81
2022/03/25 13:53:09;;;;;;;28.33;23.05;;;27.60;20.90;;;;;;6205657;23;20037;-82
2022/03/25 13:56:16;;;;;;;32.08;22.23;;;27.30;22.50;;;;;;6122242;23;20029;-86
2022/03/25 13:59:10;;;;;;;34.90;24.92;;;26.10;23.20;;;;;;6208258;22;20026;-83
2022/03/25 14:02:02;;;;;;;35.45;23.75;;;25.00;24.10;;;;;;6208182;23;20026;-82
2022/03/25 14:08:45;;;;;;;30.92;23.65;;;24.50;24.30;;;;;;6122153;23;20053;-84
2022/03/25 14:11:36;;;;;;;34.33;24.30;;;24.10;25.20;;;;;;6123911;23;20049;-83
2022/03/25 14:14:36;;;;;;;33.00;23.65;;;23.80;25.00;;;;;;6208493;23;20034;-86
2022/03/25 14:17:38;;;;;;;29.00;22.48;;;24.40;25.50;;;;;;6203891;23;20040;-82
2022/03/25 14:20:36;;;;;;;31.17;22.08;;;25.40;24.60;;;;;;6199823;23;20037;-83
2022/03/25 14:23:25;;;;;;;30.45;22.50;;;24.10;23.80;;;;;;6126003;23;20029;-84
2022/03/25 14:26:13;;;;;;;30.75;21.48;;;23.90;24.40;;;;;;6205506;23;20026;-86
2022/03/25 14:29:01;;;;;;;30.60;20.67;;;23.90;24.60;;;;;;6204615;23;20029;-86
2022/03/25 14:31:49;;;;;;;29.45;20.88;;;24.60;23.50;;;;;;6119293;23;20022;-82
2022/03/25 14:34:39;;;;;;;26.73;19.77;;;24.80;23.30;;;;;;6208180;22;20034;-81
2022/03/25 14:37:27;;;;;;;28.63;20.02;;;24.80;22.60;;;;;;6276166;22;20463;-81
2022/03/25 14:40:15;;;;;;;35.72;24.40;;;25.10;22.60;;;;;;6277715;22;20085;-84
2022/03/25 14:43:04;;;;;;;32.47;23.48;;;24.80;23.40;;;;;;6255920;22;20083;-86
2022/03/25 14:45:52;;;;;;;28.27;21.88;;;24.30;24.20;;;;;;6252380;22;20391;-86
2022/03/25 14:48:40;;;;;;;31.95;23.45;;;24.90;23.60;;;;;;6275211;22;20039;-83
2022/03/25 14:51:28;;;;;;;37.17;23.60;;;25.50;23.70;;;;;;6275079;22;20327;-85
2022/03/25 14:54:17;;;;;;;28.40;21.48;;;25.90;22.50;;;;;;6248295;22;20097;-84
2022/03/25 14:57:07;;;;;;;27.38;21.23;;;25.60;21.10;;;;;;6270151;22;20035;-84
2022/03/25 14:59:56;;;;;;;30.92;23.52;;;25.80;23.50;;;;;;6270576;22;20023;-81
2022/03/25 15:02:53;;;;;;;32.03;24.50;;;25.70;23.40;;;;;;6275134;22;20343;-84
2022/03/25 15:05:46;;;;;;;35.85;25.27;;;24.80;24.70;;;;;;6276204;22;20024;-84
2022/03/25 15:08:34;;;;;;;;;;;24.20;24.70;;;;;;6275393;22;20024;-85
2022/03/25 15:11:22;;;;;;;38.72;25.75;;;24.20;26.10;;;;;;6276491;22;19916;-82
2022/03/25 15:14:09;;;;;;;36.17;26.27;;;24.30;25.70;;;;;;6254127;22;20424;-87
2022/03/25 15:16:57;;;;;;;38.25;25.65;;;24.90;26.10;;;;;;6280013;22;20031;-85
2022/03/25 15:19:45;;;;;;;34.10;24.20;;;24.40;25.40;;;;;;6284684;22;20031;-84
2022/03/25 15:22:34;;;;;;;33.22;24.33;;;23.50;25.40;;;;;;6282816;22;20065;-86
2022/03/25 15:25:21;;;;;;;35.25;24.10;;;22.80;26.40;;;;;;6277991;22;20137;-87
2022/03/25 15:28:10;;;;;;;37.05;24.27;;;22.60;26.80;;;;;;6280887;22;20020;-88
2022/03/25 15:34:26;;;;;;;33.17;24.45;;;22.10;26.60;;;;;;6279663;22;20050;-87
2022/03/25 15:37:33;;;;;;;37.10;24.65;;;21.90;26.00;;;;;;6264959;22;20087;-88
2022/03/25 15:40:21;;;;;;;37.72;25.17;;;22.10;27.10;;;;;;6258215;22;20023;-85
2022/03/25 15:43:10;;;;;;;37.63;25.50;;;22.50;26.90;;;;;;6279800;22;20027;-86
2022/03/25 15:45:58;;;;;;;37.13;25.50;;;22.20;27.80;;;;;;6278723;22;20042;-87
2022/03/25 15:48:46;;;;;;;36.60;26.58;;;22.20;28.40;;;;;;6238134;22;20081;-87
2022/03/25 15:51:41;;;;;;;40.03;25.73;;;22.10;28.30;;;;;;6258776;22;20039;-88
2022/03/25 15:54:51;;;;;;;37.35;26.70;;;22.30;28.90;;;;;;6265223;22;20016;-89
2022/03/25 15:57:55;;;;;;;40.20;27.40;;;21.90;28.40;;;;;;6264356;22;20030;-85
2022/03/25 16:00:45;;;;;;;37.22;26.08;;;21.10;29.10;;;;;;6284370;22;20126;-88
2022/03/25 16:03:34;;;;;;;41.17;27.42;;;21.30;30.50;;;;;;6284190;22;20031;-86
2022/03/25 16:06:25;;;;;;;35.85;24.90;;;21.30;29.30;;;;;;6281460;22;20048;-89